createdAt,value
2023-04-08T00:01:22.987Z,36.37
2023-04-08T00:03:49.703Z,35.43
2023-04-08T00:06:16.293Z,39.70
2023-04-08T00:08:42.788Z,37.20
2023-04-08T00:11:09.222Z,36.93
2023-04-08T00:13:35.787Z,34.90
2023-04-08T00:16:03.196Z,37.00
2023-04-08T00:18:29.668Z,38.70
2023-04-08T00:20:57.287Z,35.37
2023-04-08T00:23:23.848Z,43.73
2023-04-08T00:25:51.018Z,44.73
2023-04-08T00:28:17.500Z,46.23
2023-04-08T00:30:43.937Z,41.03
2023-04-08T00:33:10.476Z,45.70
2023-04-08T00:35:37.144Z,39.07
2023-04-08T00:38:04.256Z,39.47
2023-04-08T00:40:30.765Z,40.70
2023-04-08T00:42:58.234Z,43.50
2023-04-08T00:45:24.736Z,53.10
2023-04-08T00:47:52.748Z,42.97
2023-04-08T00:50:20.322Z,48.23
2023-04-08T00:52:46.886Z,48.83
2023-04-08T00:55:13.352Z,51.63
2023-04-08T00:57:39.956Z,48.47
2023-04-08T01:00:06.981Z,48.57
2023-04-08T01:02:56.917Z,48.43
2023-04-08T01:06:01.925Z,56.97
2023-04-08T01:08:31.352Z,62.77
2023-04-08T01:11:01.991Z,53.40
2023-04-08T01:13:31.498Z,49.43
2023-04-08T01:15:58.192Z,50.00
2023-04-08T01:18:24.928Z,56.67
2023-04-08T01:20:53.643Z,59.50
2023-04-08T01:23:38.728Z,64.33
2023-04-08T01:26:05.193Z,55.00
2023-04-08T01:28:34.014Z,61.27
2023-04-08T01:31:02.419Z,65.43
2023-04-08T01:33:30.665Z,63.93
2023-04-08T01:35:58.923Z,64.50
2023-04-08T01:38:27.185Z,69.80
2023-04-08T01:40:55.838Z,71.47
2023-04-08T01:43:23.387Z,63.67
2023-04-08T01:45:54.377Z,62.67
2023-04-08T01:48:21.381Z,70.10
2023-04-08T01:50:48.844Z,66.70
2023-04-08T01:53:15.430Z,69.90
2023-04-08T01:55:43.233Z,64.80
2023-04-08T01:58:17.175Z,74.00
2023-04-08T02:00:44.598Z,62.00
2023-04-08T02:03:12.681Z,65.10
2023-04-08T02:05:40.250Z,69.87
2023-04-08T02:08:06.818Z,69.67
2023-04-08T02:10:33.284Z,75.87
2023-04-08T02:12:59.994Z,80.47
2023-04-08T02:15:29.023Z,70.50
2023-04-08T02:18:00.781Z,78.93
2023-04-08T02:20:34.649Z,68.10
2023-04-08T02:23:20.668Z,74.43
2023-04-08T02:25:48.240Z,81.20
2023-04-08T02:28:17.835Z,76.53
2023-04-08T02:30:51.375Z,78.10
2023-04-08T02:33:24.136Z,76.23
2023-04-08T02:35:54.490Z,78.17
2023-04-08T02:38:21.573Z,84.37
2023-04-08T02:40:50.405Z,85.07
2023-04-08T02:43:16.929Z,82.77
2023-04-08T02:45:44.695Z,83.57
2023-04-08T02:48:11.207Z,77.97
2023-04-08T02:50:37.881Z,83.83
2023-04-08T02:53:04.363Z,79.13
2023-04-08T02:55:31.031Z,80.70
2023-04-08T02:57:57.451Z,84.83
2023-04-08T03:00:23.944Z,82.93
2023-04-08T03:02:50.485Z,80.67
2023-04-08T03:05:17.457Z,84.53
2023-04-08T03:07:43.878Z,75.57
2023-04-08T03:10:10.842Z,88.73
2023-04-08T03:12:37.404Z,86.80
2023-04-08T03:15:04.206Z,78.17
2023-04-08T03:17:33.668Z,89.90
2023-04-08T03:20:01.280Z,86.63
2023-04-08T03:22:27.766Z,81.40
2023-04-08T03:24:54.220Z,85.97
2023-04-08T03:27:20.673Z,77.67
2023-04-08T03:29:47.794Z,75.30
2023-04-08T03:32:14.544Z,73.90
2023-04-08T03:34:41.318Z,79.27
2023-04-08T03:37:08.216Z,75.13
2023-04-08T03:39:34.721Z,76.83
2023-04-08T03:42:02.993Z,76.00
2023-04-08T03:44:29.617Z,79.37
2023-04-08T03:46:56.112Z,65.43
2023-04-08T03:49:22.723Z,72.57
2023-04-08T03:51:49.129Z,76.03
2023-04-08T03:54:15.896Z,68.17
2023-04-08T03:56:42.390Z,68.10
2023-04-08T03:59:08.860Z,78.73
2023-04-08T04:01:35.421Z,68.90
2023-04-08T04:04:02.075Z,71.77
2023-04-08T04:06:28.829Z,67.10
2023-04-08T04:08:55.604Z,73.07
2023-04-08T04:11:22.534Z,67.13
2023-04-08T04:13:49.164Z,66.20
2023-04-08T04:16:15.744Z,66.13
2023-04-08T04:18:42.404Z,64.83
2023-04-08T04:21:08.816Z,68.17
2023-04-08T04:23:35.302Z,62.17
2023-04-08T04:26:01.758Z,61.67
2023-04-08T04:28:28.252Z,63.03
2023-04-08T04:30:56.372Z,63.10
2023-04-08T04:33:23.098Z,67.10
2023-04-08T04:35:49.578Z,61.30
2023-04-08T04:38:16.225Z,69.87
2023-04-08T04:40:42.697Z,60.43
2023-04-08T04:43:09.164Z,58.87
2023-04-08T04:45:36.008Z,67.93
2023-04-08T04:48:03.567Z,63.10
2023-04-08T04:50:30.473Z,57.97
2023-04-08T04:52:57.073Z,60.07
2023-04-08T04:55:23.498Z,58.40
2023-04-08T04:57:49.906Z,58.40
2023-04-08T05:00:17.081Z,61.00
2023-04-08T05:02:43.980Z,64.20
2023-04-08T05:05:10.941Z,59.80
2023-04-08T05:07:38.243Z,56.87
2023-04-08T05:10:06.032Z,54.57
2023-04-08T05:12:32.673Z,54.10
2023-04-08T05:15:02.150Z,56.77
2023-04-08T05:17:28.668Z,61.23
2023-04-08T05:19:55.117Z,51.87
2023-04-08T05:22:21.881Z,52.03
2023-04-08T05:24:48.919Z,55.30
2023-04-08T05:27:15.644Z,56.27
2023-04-08T05:29:42.413Z,53.93
2023-04-08T05:32:08.805Z,54.87
2023-04-08T05:34:35.456Z,53.83
2023-04-08T05:37:01.923Z,52.60
2023-04-08T05:39:28.575Z,55.23
2023-04-08T05:41:55.191Z,55.17
2023-04-08T05:44:21.641Z,55.10
2023-04-08T05:46:48.137Z,74.83
2023-04-08T05:49:15.719Z,55.43
2023-04-08T05:51:42.257Z,57.23
2023-04-08T05:54:09.162Z,51.70
2023-04-08T05:56:36.072Z,49.37
2023-04-08T05:59:02.504Z,56.20
2023-04-08T06:01:29.087Z,55.70
2023-04-08T06:03:58.562Z,55.27
2023-04-08T06:06:28.019Z,54.33
2023-04-08T06:08:54.469Z,57.00
2023-04-08T06:11:21.014Z,57.77
2023-04-08T06:13:48.061Z,64.40
2023-04-08T06:16:21.125Z,62.03
2023-04-08T06:18:48.341Z,54.23
2023-04-08T06:21:15.299Z,58.87
2023-04-08T06:23:41.732Z,59.90
2023-04-08T06:26:08.313Z,61.83
2023-04-08T06:28:34.798Z,60.83
2023-04-08T06:31:01.384Z,54.03
2023-04-08T06:33:27.883Z,57.63
2023-04-08T06:36:13.338Z,56.67
2023-04-08T06:38:39.780Z,60.93
2023-04-08T06:41:07.453Z,64.10
2023-04-08T06:43:35.081Z,60.13
2023-04-08T06:46:01.595Z,52.63
2023-04-08T06:48:30.293Z,54.90
2023-04-08T06:50:57.670Z,55.40
2023-04-08T06:53:24.944Z,60.80
2023-04-08T06:55:51.879Z,61.13
2023-04-08T06:58:18.729Z,67.87
2023-04-08T07:00:45.305Z,65.90
2023-04-08T07:03:11.983Z,65.00
2023-04-08T07:05:38.840Z,61.03
2023-04-08T07:08:06.450Z,66.13
2023-04-08T07:10:32.957Z,62.07
2023-04-08T07:12:59.389Z,66.20
2023-04-08T07:15:25.955Z,63.37
2023-04-08T07:17:52.462Z,71.27
2023-04-08T07:20:19.185Z,62.60
2023-04-08T07:22:45.776Z,66.07
2023-04-08T07:25:12.343Z,85.37
2023-04-08T07:27:38.833Z,91.63
2023-04-08T07:30:06.017Z,84.93
2023-04-08T07:32:33.918Z,88.37
2023-04-08T07:35:01.585Z,98.07
2023-04-08T07:37:28.337Z,105.90
2023-04-08T07:39:55.148Z,127.43
2023-04-08T07:42:22.005Z,134.20
2023-04-08T07:44:48.471Z,146.57
2023-04-08T07:47:14.890Z,159.93
2023-04-08T07:49:41.485Z,139.73
2023-04-08T07:52:07.973Z,153.40
2023-04-08T07:54:34.491Z,152.87
2023-04-08T07:57:02.142Z,157.97
2023-04-08T07:59:29.343Z,144.40
2023-04-08T08:01:55.857Z,154.67
2023-04-08T08:04:25.725Z,163.57
2023-04-08T08:06:52.400Z,156.83
2023-04-08T08:09:18.930Z,148.90
2023-04-08T08:11:45.441Z,137.93
2023-04-08T08:14:13.806Z,151.17
2023-04-08T08:16:40.493Z,150.37
2023-04-08T08:19:08.730Z,119.70
2023-04-08T08:21:39.390Z,133.37
2023-04-08T08:24:06.574Z,122.10
2023-04-08T08:26:39.045Z,120.27
2023-04-08T08:29:06.563Z,115.50
2023-04-08T08:31:33.012Z,112.17
2023-04-08T08:33:59.453Z,106.20
2023-04-08T08:36:27.416Z,108.33
2023-04-08T08:38:54.241Z,110.00
2023-04-08T08:41:21.483Z,113.67
2023-04-08T08:43:48.880Z,118.93
2023-04-08T08:46:18.286Z,107.77
2023-04-08T08:48:45.856Z,114.97
2023-04-08T08:51:13.361Z,109.23
2023-04-08T08:53:44.946Z,111.33
2023-04-08T08:58:41.583Z,100.53
2023-04-08T09:01:34.398Z,97.20
2023-04-08T09:04:20.113Z,94.47
2023-04-08T09:06:50.068Z,102.60
2023-04-08T09:09:17.778Z,96.50
2023-04-08T09:11:46.478Z,94.77
2023-04-08T09:14:24.073Z,93.37
2023-04-08T09:16:52.024Z,101.33
2023-04-08T09:19:18.863Z,101.00
2023-04-08T09:21:45.868Z,107.03
2023-04-08T09:24:29.065Z,103.60
2023-04-08T09:26:56.512Z,101.73
2023-04-08T09:29:31.150Z,104.73
2023-04-08T09:32:01.465Z,95.83
2023-04-08T09:34:32.491Z,107.27
2023-04-08T09:36:59.019Z,92.93
2023-04-08T09:39:25.688Z,84.87
2023-04-08T09:41:52.941Z,81.33
2023-04-08T09:44:21.756Z,90.80
2023-04-08T09:46:52.481Z,80.30
2023-04-08T09:49:27.415Z,83.50
2023-04-08T09:52:20.879Z,88.77
2023-04-08T09:55:04.744Z,96.33
2023-04-08T09:58:01.345Z,83.33
2023-04-08T10:00:53.222Z,81.10
2023-04-08T10:03:40.904Z,70.50
2023-04-08T10:06:10.405Z,76.50
2023-04-08T10:08:37.014Z,80.43
2023-04-08T10:11:03.637Z,74.87
2023-04-08T10:13:30.505Z,79.07
2023-04-08T10:16:27.641Z,73.47
2023-04-08T10:18:58.095Z,72.67
2023-04-08T10:21:31.544Z,69.27
2023-04-08T10:24:00.922Z,69.17
2023-04-08T10:26:33.623Z,64.37
2023-04-08T10:29:18.639Z,56.53
2023-04-08T10:31:46.270Z,60.73
2023-04-08T10:34:19.976Z,61.73
2023-04-08T10:36:46.870Z,62.87
2023-04-08T10:39:14.690Z,58.77
2023-04-08T10:41:49.492Z,58.20
2023-04-08T10:44:21.276Z,63.17
2023-04-08T10:46:49.462Z,64.77
2023-04-08T10:49:17.442Z,55.30
2023-04-08T10:51:44.845Z,59.67
2023-04-08T10:54:13.671Z,56.60
2023-04-08T10:56:46.612Z,54.97
2023-04-08T10:59:16.851Z,71.40
2023-04-08T11:01:45.329Z,53.10
2023-04-08T11:04:18.443Z,41.10
2023-04-08T11:06:47.369Z,34.23
2023-04-08T11:09:14.417Z,36.53
2023-04-08T11:11:45.287Z,31.10
2023-04-08T11:14:12.923Z,35.43
2023-04-08T11:16:39.609Z,34.27
2023-04-08T11:19:07.694Z,34.23
2023-04-08T11:21:37.565Z,33.20
2023-04-08T11:24:10.019Z,30.97
2023-04-08T11:26:37.292Z,33.50
2023-04-08T11:29:04.433Z,26.73
2023-04-08T11:31:34.575Z,24.73
2023-04-08T11:34:01.167Z,24.43
2023-04-08T11:36:30.046Z,23.70
2023-04-08T11:38:57.005Z,25.10
2023-04-08T11:41:23.825Z,24.50
2023-04-08T11:43:55.157Z,23.50
2023-04-08T11:46:22.324Z,24.60
2023-04-08T11:49:06.547Z,25.47
2023-04-08T11:51:34.810Z,24.03
2023-04-08T11:54:06.539Z,26.97
2023-04-08T11:56:44.906Z,23.40
2023-04-08T11:59:11.470Z,23.00
2023-04-08T12:01:38.029Z,22.50
2023-04-08T12:04:05.759Z,22.57
2023-04-08T12:06:32.349Z,22.37
2023-04-08T12:08:59.759Z,18.90
2023-04-08T12:11:26.309Z,23.33
2023-04-08T12:13:53.272Z,21.00
2023-04-08T12:16:20.625Z,20.90
2023-04-08T12:18:47.668Z,18.03
2023-04-08T12:21:14.219Z,19.47
2023-04-08T12:23:40.726Z,19.23
2023-04-08T12:26:07.980Z,17.70
2023-04-08T12:28:37.306Z,24.50
2023-04-08T12:31:04.121Z,18.90
2023-04-08T12:33:31.315Z,18.77
2023-04-08T12:35:59.106Z,19.90
2023-04-08T12:38:27.067Z,22.27
2023-04-08T12:40:54.007Z,18.90
2023-04-08T12:43:21.009Z,18.70
2023-04-08T12:45:48.997Z,17.50
2023-04-08T12:48:15.589Z,15.83
2023-04-08T12:50:42.167Z,18.17
2023-04-08T12:53:08.707Z,17.17
2023-04-08T12:55:35.292Z,18.03
2023-04-08T12:58:01.808Z,24.07
2023-04-08T13:00:28.291Z,21.33
2023-04-08T13:02:54.868Z,21.60
2023-04-08T13:05:29.473Z,16.90
2023-04-08T13:07:59.546Z,16.83
2023-04-08T13:10:26.613Z,17.00
2023-04-08T13:12:53.256Z,16.40
2023-04-08T13:15:19.813Z,18.23
2023-04-08T13:17:46.271Z,17.57
2023-04-08T13:20:12.748Z,16.67
2023-04-08T13:22:41.259Z,15.57
2023-04-08T13:25:08.058Z,17.40
2023-04-08T13:27:34.516Z,16.00
2023-04-08T13:30:01.194Z,14.93
2023-04-08T13:32:27.725Z,15.63
2023-04-08T13:34:54.273Z,18.47
2023-04-08T13:37:20.724Z,19.67
2023-04-08T13:39:47.201Z,16.33
2023-04-08T13:42:13.636Z,19.10
2023-04-08T13:44:40.117Z,20.80
2023-04-08T13:47:06.546Z,20.90
2023-04-08T13:49:32.971Z,19.30
2023-04-08T13:51:59.515Z,24.70
2023-04-08T13:54:26.028Z,21.20
2023-04-08T13:56:52.596Z,21.27
2023-04-08T13:59:19.044Z,20.80
2023-04-08T14:01:45.633Z,22.47
2023-04-08T14:04:12.153Z,25.00
2023-04-08T14:06:38.654Z,22.47
2023-04-08T14:09:05.232Z,27.20
2023-04-08T14:11:31.789Z,25.20
2023-04-08T14:13:58.263Z,22.90
2023-04-08T14:16:25.035Z,27.07
2023-04-08T14:18:51.866Z,21.97
2023-04-08T14:21:18.737Z,21.97
2023-04-08T14:23:45.525Z,23.90
2023-04-08T14:26:12.099Z,24.20
2023-04-08T14:28:38.584Z,22.03
2023-04-08T14:31:06.189Z,25.10
2023-04-08T14:33:33.097Z,20.83
2023-04-08T14:36:00.204Z,27.33
2023-04-08T14:38:26.813Z,25.53
2023-04-08T14:40:54.633Z,26.83
2023-04-08T14:43:24.053Z,21.83
2023-04-08T14:45:51.734Z,21.80
2023-04-08T14:48:19.373Z,23.23
2023-04-08T14:50:46.232Z,25.10
2023-04-08T14:53:12.656Z,23.63
2023-04-08T14:55:39.176Z,23.00
2023-04-08T14:58:05.811Z,22.20
2023-04-08T15:00:32.331Z,23.90
2023-04-08T15:02:59.191Z,25.93
2023-04-08T15:05:25.745Z,22.20
2023-04-08T15:07:52.512Z,18.70
2023-04-08T15:10:18.996Z,19.77
2023-04-08T15:12:45.678Z,18.70
2023-04-08T15:15:12.209Z,18.73
2023-04-08T15:17:38.760Z,23.03
2023-04-08T15:20:05.861Z,20.50
2023-04-08T15:22:32.551Z,18.60
2023-04-08T15:24:58.997Z,21.80
2023-04-08T15:27:25.507Z,25.70
2023-04-08T15:29:52.382Z,23.20
2023-04-08T15:32:18.931Z,22.07
2023-04-08T15:34:45.443Z,23.70
2023-04-08T15:37:11.879Z,23.60
2023-04-08T15:39:38.356Z,27.63
2023-04-08T15:42:05.402Z,30.37
2023-04-08T15:44:32.716Z,30.27
2023-04-08T15:46:59.234Z,35.70
2023-04-08T15:49:26.486Z,27.27
2023-04-08T15:51:53.571Z,27.07
2023-04-08T15:54:20.185Z,26.70
2023-04-08T15:56:46.931Z,25.60
2023-04-08T15:59:13.831Z,33.00
2023-04-08T16:01:43.230Z,26.40
2023-04-08T16:04:10.019Z,25.40
2023-04-08T16:06:36.844Z,28.50
2023-04-08T16:09:03.490Z,32.60
2023-04-08T16:11:29.972Z,35.90
2023-04-08T16:13:57.308Z,37.50
2023-04-08T16:16:23.822Z,35.77
2023-04-08T16:18:50.570Z,38.90
2023-04-08T16:21:17.325Z,36.80
2023-04-08T16:23:43.882Z,37.70
2023-04-08T16:26:10.725Z,39.10
2023-04-08T16:28:38.945Z,41.57
2023-04-08T16:31:06.385Z,37.20
2023-04-08T16:33:33.393Z,32.00
2023-04-08T16:36:00.746Z,27.77
2023-04-08T16:38:27.747Z,28.57
2023-04-08T16:40:57.643Z,26.63
2023-04-08T16:43:24.953Z,27.03
2023-04-08T16:45:53.103Z,28.13
2023-04-08T16:48:19.843Z,29.07
2023-04-08T16:50:46.325Z,25.10
2023-04-08T16:53:12.770Z,26.53
2023-04-08T16:55:39.245Z,21.10
2023-04-08T16:58:06.089Z,20.90
2023-04-08T17:00:32.534Z,18.80
2023-04-08T17:02:59.193Z,21.87
2023-04-08T17:05:26.595Z,20.63
2023-04-08T17:07:53.214Z,21.40
2023-04-08T17:10:22.105Z,22.07
2023-04-08T17:12:48.584Z,24.17
2023-04-08T17:15:15.126Z,21.53
2023-04-08T17:17:41.762Z,22.77
2023-04-08T17:20:08.727Z,23.50
2023-04-08T17:22:35.687Z,20.90
2023-04-08T17:25:02.156Z,25.00
2023-04-08T17:27:28.686Z,25.27
2023-04-08T17:29:57.796Z,23.23
2023-04-08T17:32:24.796Z,25.33
2023-04-08T17:34:52.336Z,24.80
2023-04-08T17:37:19.226Z,25.47
2023-04-08T17:39:45.894Z,25.03
2023-04-08T17:42:13.179Z,25.77
2023-04-08T17:44:42.237Z,24.20
2023-04-08T17:47:08.877Z,25.60
2023-04-08T17:49:35.480Z,25.53
2023-04-08T17:52:02.032Z,28.73
2023-04-08T17:54:28.479Z,30.53
2023-04-08T17:56:54.932Z,28.97
2023-04-08T17:59:21.419Z,28.53
2023-04-08T18:01:48.076Z,28.07
2023-04-08T18:04:14.718Z,29.50
2023-04-08T18:06:41.250Z,30.10
2023-04-08T18:09:08.258Z,31.23
2023-04-08T18:11:34.746Z,31.10
2023-04-08T18:14:01.181Z,29.60
2023-04-08T18:16:27.793Z,31.47
2023-04-08T18:18:54.289Z,31.87
2023-04-08T18:21:21.995Z,36.50
2023-04-08T18:23:49.997Z,32.87
2023-04-08T18:26:17.136Z,35.87
2023-04-08T18:28:43.667Z,35.90
2023-04-08T18:31:10.356Z,35.90
2023-04-08T18:33:38.863Z,34.23
2023-04-08T18:36:07.023Z,34.03
2023-04-08T18:38:33.566Z,35.47
2023-04-08T18:41:00.639Z,35.47
2023-04-08T18:43:28.737Z,37.47
2023-04-08T18:45:55.553Z,38.77
2023-04-08T18:48:22.063Z,37.30
2023-04-08T18:50:48.793Z,36.20
2023-04-08T18:53:15.362Z,37.80
2023-04-08T18:55:44.633Z,35.60
2023-04-08T18:58:11.529Z,33.80
2023-04-08T19:00:41.911Z,40.50
2023-04-08T19:03:10.258Z,34.30
2023-04-08T19:05:37.534Z,35.93
2023-04-08T19:08:04.566Z,36.50
2023-04-08T19:10:34.738Z,37.40
2023-04-08T19:13:01.975Z,36.87
2023-04-08T19:15:31.667Z,35.90
2023-04-08T19:17:59.355Z,36.83
2023-04-08T19:20:27.205Z,39.50
2023-04-08T19:22:53.689Z,37.13
2023-04-08T19:25:20.470Z,37.63
2023-04-08T19:27:47.647Z,34.97
2023-04-08T19:30:14.187Z,37.00
2023-04-08T19:32:40.801Z,36.27
2023-04-08T19:35:07.853Z,38.23
2023-04-08T19:37:34.601Z,37.23
2023-04-08T19:40:01.077Z,36.93
2023-04-08T19:42:27.621Z,39.67
2023-04-08T19:44:55.107Z,59.13
2023-04-08T19:47:22.143Z,37.87
2023-04-08T19:49:48.696Z,38.17
2023-04-08T19:52:15.316Z,39.00
2023-04-08T19:54:43.335Z,37.80
2023-04-08T19:57:10.918Z,42.37
2023-04-08T19:59:38.146Z,37.70
2023-04-08T20:02:05.072Z,41.83
2023-04-08T20:04:32.045Z,42.43
2023-04-08T20:07:01.117Z,45.43
2023-04-08T20:09:27.577Z,40.87
2023-04-08T20:11:54.024Z,44.20
2023-04-08T20:14:20.534Z,41.30
2023-04-08T20:16:47.146Z,48.83
2023-04-08T20:19:13.543Z,47.97
2023-04-08T20:21:39.962Z,43.90
2023-04-08T20:24:07.243Z,43.70
2023-04-08T20:26:33.676Z,42.03
2023-04-08T20:29:00.568Z,47.77
2023-04-08T20:31:27.909Z,46.10
2023-04-08T20:33:54.465Z,45.20
2023-04-08T20:36:22.100Z,41.03
2023-04-08T20:38:48.582Z,52.70
2023-04-08T20:41:20.136Z,52.27
2023-04-08T20:43:46.612Z,43.90
2023-04-08T20:46:13.110Z,48.00
2023-04-08T20:48:39.564Z,42.67
2023-04-08T20:51:06.099Z,45.27
2023-04-08T20:53:34.418Z,43.87
2023-04-08T20:56:01.822Z,41.47
2023-04-08T20:58:28.730Z,41.33
2023-04-08T21:00:57.567Z,39.77
2023-04-08T21:03:24.497Z,43.90
2023-04-08T21:05:52.679Z,49.30
2023-04-08T21:08:19.188Z,43.37
2023-04-08T21:10:45.765Z,45.20
2023-04-08T21:13:12.275Z,41.73
2023-04-08T21:15:39.020Z,44.90
2023-04-08T21:18:06.408Z,43.93
2023-04-08T21:20:32.868Z,50.27
2023-04-08T21:23:00.473Z,40.53
2023-04-08T21:25:26.895Z,46.83
2023-04-08T21:27:53.700Z,47.23
2023-04-08T21:30:21.333Z,41.27
2023-04-08T21:32:47.893Z,44.53
2023-04-08T21:35:15.331Z,41.40
2023-04-08T21:37:42.122Z,43.93
2023-04-08T21:40:09.101Z,43.77
2023-04-08T21:42:35.672Z,43.50
2023-04-08T21:45:02.144Z,44.57
2023-04-08T21:47:28.618Z,42.87
2023-04-08T21:49:55.919Z,40.30
2023-04-08T21:52:22.347Z,41.10
2023-04-08T21:54:52.738Z,42.47
2023-04-08T21:57:19.236Z,44.57
2023-04-08T21:59:45.857Z,43.00
2023-04-08T22:02:12.462Z,43.83
2023-04-08T22:04:39.084Z,42.43
2023-04-08T22:07:05.540Z,68.77
2023-04-08T22:09:32.314Z,40.73
2023-04-08T22:11:58.854Z,41.10
2023-04-08T22:14:25.275Z,43.20
2023-04-08T22:16:51.751Z,46.70
2023-04-08T22:19:18.224Z,42.50
2023-04-08T22:21:44.692Z,43.27
2023-04-08T22:24:11.245Z,45.20
2023-04-08T22:26:37.890Z,41.90
2023-04-08T22:29:04.449Z,45.10
2023-04-08T22:31:31.213Z,43.10
2023-04-08T22:33:57.698Z,50.73
2023-04-08T22:36:24.103Z,44.53
2023-04-08T22:38:50.844Z,51.53
2023-04-08T22:41:21.952Z,53.10
2023-04-08T22:43:49.508Z,50.10
2023-04-08T22:46:18.130Z,50.27
2023-04-08T22:48:45.104Z,52.90
2023-04-08T22:51:12.673Z,48.17
2023-04-08T22:53:39.228Z,51.50
2023-04-08T22:56:05.869Z,50.07
2023-04-08T22:58:32.440Z,52.53
2023-04-08T23:00:58.952Z,51.13
2023-04-08T23:03:25.553Z,52.30
2023-04-08T23:05:52.256Z,51.67
2023-04-08T23:08:18.670Z,51.13
2023-04-08T23:10:45.251Z,53.90
2023-04-08T23:13:11.881Z,51.03
2023-04-08T23:15:38.592Z,58.07
2023-04-08T23:18:05.078Z,51.57
2023-04-08T23:20:31.951Z,55.30
2023-04-08T23:22:58.376Z,49.80
2023-04-08T23:25:24.813Z,52.07
2023-04-08T23:27:51.237Z,58.37
2023-04-08T23:30:17.864Z,53.93
2023-04-08T23:32:44.344Z,48.70
2023-04-08T23:35:10.831Z,51.63
2023-04-08T23:37:37.263Z,50.90
2023-04-08T23:40:03.924Z,54.53
2023-04-08T23:42:30.601Z,50.87
2023-04-08T23:44:57.063Z,51.17
2023-04-08T23:47:23.568Z,49.10
2023-04-08T23:49:50.030Z,51.87
2023-04-08T23:52:16.639Z,50.60
2023-04-08T23:54:43.079Z,46.87
2023-04-08T23:57:09.568Z,48.17
2023-04-08T23:59:36.079Z,49.23
